Time;durP1;ratioP1;P1;durP2;ratioP2;P2;SDS_P1;SDS_P2;PMS_P1;PMS_P2;Temp;Humidity;BMP_temperature;BMP_pressure;BME280_temperature;BME280_humidity;BME280_pressure;Samples;Min_cycle;Max_cycle;Signal;HPM_P1;HPM_P2
2022/10/19 00:00:48;;;;;;;10.98;5.75;;;;;;;;;;1689272;85;21020;-63
2022/10/19 00:03:15;;;;;;;11.05;6.28;;;;;;;;;;1689453;85;21048;-66
2022/10/19 00:05:41;;;;;;;9.40;4.75;;;;;;;;;;1689548;85;21079;-63
2022/10/19 00:20:35;;;;;;;10.48;6.47;;;;;;;;;;1767349;80;22990;-66
2022/10/19 00:23:02;;;;;;;11.10;6.30;;;;;;;;;;1720424;83;21033;-65
2022/10/19 00:25:28;;;;;;;12.23;6.47;;;;;;;;;;1728820;83;21018;-66
2022/10/19 00:27:55;;;;;;;12.75;6.00;;;;;;;;;;1707756;83;21099;-65
2022/10/19 00:30:21;;;;;;;12.03;6.80;;;;;;;;;;1732966;82;21016;-66
2022/10/19 00:32:47;;;;;;;9.68;5.58;;;;;;;;;;1707444;83;20987;-65
2022/10/19 00:35:13;;;;;;;12.30;6.40;;;;;;;;;;1762315;81;21046;-65
2022/10/19 00:37:39;;;;;;;10.98;6.65;;;;;;;;;;1761994;81;21079;-65
2022/10/19 01:00:53;;;;;;;11.10;6.60;;;;;;;;;;1817973;79;22908;-71
2022/10/19 01:03:19;;;;;;;10.03;6.10;;;;;;;;;;1788456;79;21058;-71
2022/10/19 01:05:45;;;;;;;10.05;6.42;;;;;;;;;;1791737;80;20984;-71
2022/10/19 01:08:11;;;;;;;8.40;5.58;;;;;;;;;;1789935;80;21430;-71
2022/10/19 01:10:43;;;;;;;9.25;6.17;;;;;;;;;;1792558;80;21004;-71
2022/10/19 01:13:12;;;;;;;11.80;6.83;;;;;;;;;;1790659;79;21048;-71
2022/10/19 01:15:52;;;;;;;12.30;6.28;;;;;;;;;;1791785;80;20988;-71
2022/10/19 01:18:23;;;;;;;9.08;6.35;;;;;;;;;;1790544;80;21044;-72
2022/10/19 01:21:00;;;;;;;9.88;5.92;;;;;;;;;;1785966;80;21055;-71
2022/10/19 01:23:31;;;;;;;10.05;5.83;;;;;;;;;;1790892;80;21032;-71
2022/10/19 01:26:08;;;;;;;11.48;7.22;;;;;;;;;;1790938;80;21508;-71
2022/10/19 01:28:37;;;;;;;12.80;6.67;;;;;;;;;;1788163;80;21119;-72
2022/10/19 01:31:05;;;;;;;14.30;6.30;;;;;;;;;;1764973;80;21033;-72
2022/10/19 01:33:40;;;;;;;9.63;6.03;;;;;;;;;;1786692;79;21005;-72
2022/10/19 01:36:08;;;;;;;9.68;5.80;;;;;;;;;;1790746;80;21039;-72
2022/10/19 01:38:40;;;;;;;16.07;8.03;;;;;;;;;;1782614;80;20989;-71
2022/10/19 01:41:08;;;;;;;10.98;5.72;;;;;;;;;;1773892;80;21100;-71
2022/10/19 01:43:39;;;;;;;10.60;5.87;;;;;;;;;;1792483;80;21000;-71
2022/10/19 01:46:22;;;;;;;10.75;6.22;;;;;;;;;;1792004;80;20969;-72
2022/10/19 01:48:49;;;;;;;;;;;;;;;;;;1783854;79;21044;-72
2022/10/19 01:51:16;;;;;;;11.35;6.55;;;;;;;;;;1790897;79;20132;-72
2022/10/19 01:53:44;;;;;;;9.23;5.33;;;;;;;;;;1787059;80;21035;-71
2022/10/19 01:56:10;;;;;;;12.05;6.62;;;;;;;;;;1792444;80;21000;-72
2022/10/19 01:58:36;;;;;;;10.55;6.03;;;;;;;;;;1792119;79;21095;-70
2022/10/19 02:03:59;;;;;;;10.85;6.40;;;;;;;;;;1730548;78;77792;-61
2022/10/19 02:06:26;;;;;;;11.48;6.08;;;;;;;;;;1694242;83;21015;-63
2022/10/19 02:08:52;;;;;;;8.45;5.40;;;;;;;;;;1660130;86;21563;-63
2022/10/19 02:11:19;;;;;;;11.57;6.67;;;;;;;;;;1656658;85;22028;-62
2022/10/19 02:13:45;;;;;;;11.38;6.83;;;;;;;;;;1708260;83;21077;-62
2022/10/19 02:16:13;;;;;;;12.40;6.70;;;;;;;;;;1705242;82;21053;-62
2022/10/19 02:18:40;;;;;;;11.00;6.72;;;;;;;;;;1697185;84;21055;-61
2022/10/19 02:21:06;;;;;;;16.70;7.40;;;;;;;;;;1709062;83;21081;-62
2022/10/19 02:23:33;;;;;;;11.35;5.95;;;;;;;;;;1700861;83;21057;-63
2022/10/19 02:25:59;;;;;;;9.60;6.05;;;;;;;;;;1725410;82;21048;-64
2022/10/19 02:28:26;;;;;;;10.40;6.12;;;;;;;;;;1711120;83;21037;-64
2022/10/19 02:30:52;;;;;;;10.88;6.58;;;;;;;;;;1698690;83;21559;-62
2022/10/19 02:33:18;;;;;;;13.15;6.72;;;;;;;;;;1703134;83;21048;-63
2022/10/19 02:35:46;;;;;;;10.65;6.33;;;;;;;;;;1679878;85;21077;-63
2022/10/19 02:38:14;;;;;;;10.23;6.28;;;;;;;;;;1700757;83;21211;-63
2022/10/19 02:40:41;;;;;;;13.22;6.72;;;;;;;;;;1701797;83;21549;-63
2022/10/19 02:43:12;;;;;;;12.65;6.58;;;;;;;;;;1697317;83;21073;-63
2022/10/19 02:45:40;;;;;;;11.73;6.35;;;;;;;;;;1668976;83;21565;-60
2022/10/19 02:48:09;;;;;;;13.65;6.65;;;;;;;;;;1659965;85;21548;-63
2022/10/19 02:50:35;;;;;;;12.00;6.72;;;;;;;;;;1670069;85;21064;-63
2022/10/19 02:53:01;;;;;;;9.05;6.30;;;;;;;;;;1651361;86;21051;-61
2022/10/19 02:55:28;;;;;;;11.65;6.47;;;;;;;;;;1716583;82;21532;-62
2022/10/19 02:57:56;;;;;;;11.25;6.40;;;;;;;;;;1692005;84;21083;-62
2022/10/19 03:00:22;;;;;;;11.90;7.20;;;;;;;;;;1696903;84;21045;-62
2022/10/19 03:02:48;;;;;;;13.25;7.17;;;;;;;;;;1678074;85;21117;-62
2022/10/19 03:05:14;;;;;;;13.20;6.85;;;;;;;;;;1673948;84;21104;-62
2022/10/19 03:07:42;;;;;;;15.80;6.97;;;;;;;;;;1677013;85;21052;-62
2022/10/19 03:10:09;;;;;;;12.03;7.03;;;;;;;;;;1676517;85;21025;-63
2022/10/19 03:12:36;;;;;;;12.78;6.58;;;;;;;;;;1651211;85;21065;-63
2022/10/19 03:15:03;;;;;;;13.10;6.53;;;;;;;;;;1637340;86;21038;-63
2022/10/19 03:17:29;;;;;;;12.73;7.65;;;;;;;;;;1653364;86;21552;-63
2022/10/19 03:19:56;;;;;;;11.18;6.75;;;;;;;;;;1641653;87;21077;-62
2022/10/19 03:22:22;;;;;;;14.00;6.97;;;;;;;;;;1694353;84;21045;-63
2022/10/19 03:24:48;;;;;;;12.15;7.20;;;;;;;;;;1688622;84;21108;-63
2022/10/19 03:27:14;;;;;;;16.57;7.30;;;;;;;;;;1672397;85;21053;-62
2022/10/19 03:29:42;;;;;;;16.30;7.10;;;;;;;;;;1675248;85;21028;-63
2022/10/19 03:32:08;;;;;;;11.25;6.60;;;;;;;;;;1654568;86;22076;-62
2022/10/19 03:34:34;;;;;;;12.80;6.72;;;;;;;;;;1658423;86;21037;-62
2022/10/19 03:37:01;;;;;;;11.57;7.33;;;;;;;;;;1623280;88;21041;-63
2022/10/19 03:39:27;;;;;;;15.35;7.75;;;;;;;;;;1641229;87;21109;-62
2022/10/19 03:41:53;;;;;;;12.15;7.45;;;;;;;;;;1677381;84;21041;-62
2022/10/19 03:44:19;;;;;;;12.80;7.40;;;;;;;;;;1675731;85;21017;-62
2022/10/19 03:46:45;;;;;;;14.23;7.95;;;;;;;;;;1673638;85;21535;-62
2022/10/19 03:49:11;;;;;;;12.05;7.58;;;;;;;;;;1668568;85;21042;-62
2022/10/19 03:51:38;;;;;;;10.55;6.37;;;;;;;;;;1677207;84;21089;-61
2022/10/19 03:54:08;;;;;;;13.08;8.13;;;;;;;;;;1668184;85;21021;-62
2022/10/19 03:56:34;;;;;;;10.63;6.65;;;;;;;;;;1688235;85;21065;-62
2022/10/19 03:59:01;;;;;;;16.02;7.37;;;;;;;;;;1655550;86;21052;-62
2022/10/19 04:01:32;;;;;;;14.85;7.45;;;;;;;;;;1613391;88;21588;-63
2022/10/19 04:04:02;;;;;;;13.00;7.12;;;;;;;;;;1646630;85;21654;-62
2022/10/19 04:06:29;;;;;;;13.93;7.50;;;;;;;;;;1633219;88;21594;-62
2022/10/19 04:08:56;;;;;;;13.25;7.80;;;;;;;;;;1636629;88;21108;-62
2022/10/19 04:11:23;;;;;;;15.90;7.78;;;;;;;;;;1649213;87;21061;-62
2022/10/19 04:13:50;;;;;;;15.58;8.10;;;;;;;;;;1641301;87;21136;-62
2022/10/19 04:16:16;;;;;;;12.80;6.78;;;;;;;;;;1645878;87;21081;-62
2022/10/19 04:18:42;;;;;;;13.03;7.60;;;;;;;;;;1643006;87;21628;-61
2022/10/19 04:21:10;;;;;;;11.90;7.05;;;;;;;;;;1602769;88;22059;-62
2022/10/19 04:23:37;;;;;;;14.05;7.78;;;;;;;;;;1652995;87;21922;-62
2022/10/19 04:26:05;;;;;;;10.82;7.42;;;;;;;;;;1654091;87;21190;-62
2022/10/19 04:28:31;;;;;;;14.60;7.47;;;;;;;;;;1654098;87;21136;-62
2022/10/19 04:30:59;;;;;;;13.85;7.70;;;;;;;;;;1637053;85;21125;-61
2022/10/19 04:33:25;;;;;;;12.03;6.92;;;;;;;;;;1637541;87;21049;-62
2022/10/19 04:35:53;;;;;;;12.95;6.85;;;;;;;;;;1621824;87;21061;-61
2022/10/19 04:38:20;;;;;;;13.68;7.25;;;;;;;;;;1637747;87;21072;-62
2022/10/19 04:40:46;;;;;;;15.15;8.90;;;;;;;;;;1636769;87;21116;-62
2022/10/19 04:43:12;;;;;;;11.50;6.80;;;;;;;;;;1651020;87;21069;-61
2022/10/19 04:45:39;;;;;;;13.85;8.20;;;;;;;;;;1623078;88;21592;-62
2022/10/19 04:48:05;;;;;;;14.87;8.28;;;;;;;;;;1650986;87;21097;-62
2022/10/19 04:50:32;;;;;;;13.85;7.83;;;;;;;;;;1638868;87;21045;-61
2022/10/19 04:52:58;;;;;;;13.35;8.33;;;;;;;;;;1649194;87;21498;-61
2022/10/19 04:55:24;;;;;;;17.48;7.85;;;;;;;;;;1641526;87;21018;-61
2022/10/19 04:57:50;;;;;;;14.90;8.30;;;;;;;;;;1627193;88;21081;-62
2022/10/19 05:00:16;;;;;;;16.57;8.80;;;;;;;;;;1653513;87;21093;-62
2022/10/19 05:02:43;;;;;;;16.25;9.18;;;;;;;;;;1648758;85;21101;-62
2022/10/19 05:05:09;;;;;;;14.60;7.47;;;;;;;;;;1654834;86;21694;-62
2022/10/19 05:07:36;;;;;;;16.52;8.23;;;;;;;;;;1658488;86;21632;-62
2022/10/19 05:10:03;;;;;;;13.45;7.50;;;;;;;;;;1656152;86;21092;-62
2022/10/19 05:12:29;;;;;;;14.90;8.55;;;;;;;;;;1654224;85;21101;-62
2022/10/19 05:14:56;;;;;;;13.38;8.65;;;;;;;;;;1659294;86;21080;-62
2022/10/19 05:17:21;;;;;;;17.40;8.58;;;;;;;;;;1648941;86;21061;-62
2022/10/19 05:19:48;;;;;;;21.17;9.60;;;;;;;;;;1658431;86;21093;-62
2022/10/19 05:22:15;;;;;;;17.55;9.33;;;;;;;;;;1660795;85;21085;-62
2022/10/19 05:24:41;;;;;;;15.88;8.03;;;;;;;;;;1655424;86;21081;-62
2022/10/19 05:27:07;;;;;;;14.38;7.95;;;;;;;;;;1660001;86;21041;-62
2022/10/19 05:29:33;;;;;;;16.10;9.28;;;;;;;;;;1650526;86;21052;-62
2022/10/19 05:31:59;;;;;;;13.05;8.25;;;;;;;;;;1656012;85;21044;-62
2022/10/19 05:34:26;;;;;;;15.63;9.23;;;;;;;;;;1659701;86;21057;-60
2022/10/19 05:36:52;;;;;;;13.72;8.18;;;;;;;;;;1648196;86;21041;-61
2022/10/19 05:39:18;;;;;;;13.45;8.00;;;;;;;;;;1635707;86;21097;-61
2022/10/19 05:41:45;;;;;;;15.58;8.63;;;;;;;;;;1660192;85;21048;-61
2022/10/19 05:44:15;;;;;;;13.70;8.68;;;;;;;;;;1650510;85;21120;-62
2022/10/19 05:46:41;;;;;;;15.80;8.45;;;;;;;;;;1636224;86;21021;-61
2022/10/19 05:49:08;;;;;;;13.95;8.65;;;;;;;;;;1628573;88;21081;-61
2022/10/19 05:51:34;;;;;;;15.72;10.18;;;;;;;;;;1616420;88;21121;-62
2022/10/19 05:54:01;;;;;;;16.97;9.83;;;;;;;;;;1635239;86;21096;-61
2022/10/19 05:56:28;;;;;;;15.75;8.88;;;;;;;;;;1653783;85;21096;-60
2022/10/19 05:58:54;;;;;;;14.30;8.73;;;;;;;;;;1630988;86;21013;-62
2022/10/19 06:01:20;;;;;;;18.92;9.23;;;;;;;;;;1648658;86;21064;-61
2022/10/19 06:03:47;;;;;;;15.88;8.35;;;;;;;;;;1632554;86;21105;-61
2022/10/19 06:06:13;;;;;;;17.27;8.88;;;;;;;;;;1612604;88;21126;-62
2022/10/19 06:08:40;;;;;;;14.25;7.50;;;;;;;;;;1653290;86;21029;-63
2022/10/19 06:11:12;;;;;;;16.82;9.00;;;;;;;;;;1641199;87;21037;-64
2022/10/19 06:13:38;;;;;;;12.50;8.15;;;;;;;;;;1625270;86;21031;-62
2022/10/19 06:16:06;;;;;;;14.68;8.88;;;;;;;;;;1631575;88;21053;-61
2022/10/19 06:18:33;;;;;;;13.72;8.18;;;;;;;;;;1634448;86;21025;-62
2022/10/19 06:21:03;;;;;;;16.20;8.25;;;;;;;;;;1645708;86;21109;-62
2022/10/19 06:23:31;;;;;;;13.30;7.62;;;;;;;;;;1630450;86;21061;-62
2022/10/19 06:25:57;;;;;;;13.03;8.50;;;;;;;;;;1639338;86;21069;-61
2022/10/19 06:28:24;;;;;;;15.68;7.83;;;;;;;;;;1652200;86;21489;-62
2022/10/19 06:30:50;;;;;;;14.73;7.95;;;;;;;;;;1653410;86;21620;-62
2022/10/19 06:33:17;;;;;;;11.97;7.95;;;;;;;;;;1631858;86;21556;-61
2022/10/19 06:35:44;;;;;;;14.25;8.03;;;;;;;;;;1651501;86;21038;-61
2022/10/19 06:38:12;;;;;;;13.00;7.70;;;;;;;;;;1641441;86;21052;-62
2022/10/19 06:40:38;;;;;;;11.68;7.83;;;;;;;;;;1643290;87;21049;-62
2022/10/19 06:43:05;;;;;;;13.88;7.10;;;;;;;;;;1608448;87;21086;-62
2022/10/19 06:45:31;;;;;;;11.70;6.22;;;;;;;;;;1602260;89;21093;-62
2022/10/19 06:47:58;;;;;;;9.65;5.70;;;;;;;;;;1622873;86;21159;-62
2022/10/19 06:50:25;;;;;;;9.78;5.15;;;;;;;;;;1649039;86;21056;-62
2022/10/19 06:52:51;;;;;;;8.20;5.08;;;;;;;;;;1628302;86;21585;-63
2022/10/19 06:55:18;;;;;;;9.83;5.22;;;;;;;;;;1624552;86;21022;-62
2022/10/19 06:57:44;;;;;;;8.15;5.40;;;;;;;;;;1623804;88;21085;-62
2022/10/19 07:00:12;;;;;;;7.25;4.60;;;;;;;;;;1631885;86;21576;-62
2022/10/19 07:02:38;;;;;;;6.15;4.10;;;;;;;;;;1644773;86;21509;-62
2022/10/19 07:05:05;;;;;;;6.90;3.77;;;;;;;;;;1646371;86;21103;-62
2022/10/19 07:07:31;;;;;;;8.20;4.12;;;;;;;;;;1651797;86;21600;-61
2022/10/19 07:09:57;;;;;;;7.55;4.37;;;;;;;;;;1686906;83;21636;-61
2022/10/19 07:12:23;;;;;;;6.42;4.20;;;;;;;;;;1684113;85;21064;-62
2022/10/19 07:14:53;;;;;;;8.08;4.45;;;;;;;;;;1656118;86;21065;-63
2022/10/19 07:17:21;;;;;;;6.53;4.40;;;;;;;;;;1637732;86;21137;-63
2022/10/19 07:19:48;;;;;;;6.35;4.62;;;;;;;;;;1621358;88;21172;-62
2022/10/19 07:22:14;;;;;;;9.03;4.67;;;;;;;;;;1614895;86;21066;-62
2022/10/19 07:24:40;;;;;;;10.75;4.45;;;;;;;;;;1626510;86;21034;-62
2022/10/19 07:27:06;;;;;;;6.78;4.05;;;;;;;;;;1681699;83;21072;-62
2022/10/19 07:29:32;;;;;;;8.55;4.00;;;;;;;;;;1689459;84;21080;-62
2022/10/19 07:31:58;;;;;;;5.83;4.25;;;;;;;;;;1658458;86;21077;-62
2022/10/19 07:34:24;;;;;;;5.45;3.85;;;;;;;;;;1655060;86;21077;-61
2022/10/19 07:36:51;;;;;;;5.55;3.50;;;;;;;;;;1655514;85;21152;-62
2022/10/19 07:39:17;;;;;;;5.15;3.10;;;;;;;;;;1632298;87;21085;-63
2022/10/19 07:41:44;;;;;;;5.47;3.05;;;;;;;;;;1692144;84;21021;-61
2022/10/19 07:44:11;;;;;;;4.80;2.75;;;;;;;;;;1687827;84;21056;-62
2022/10/19 07:46:38;;;;;;;4.60;2.50;;;;;;;;;;1689169;84;21059;-61
2022/10/19 07:49:06;;;;;;;3.27;2.40;;;;;;;;;;1681107;83;21560;-62
2022/10/19 07:51:34;;;;;;;10.63;6.12;;;;;;;;;;1683000;84;21065;-62
2022/10/19 07:54:00;;;;;;;4.17;2.80;;;;;;;;;;1651763;85;21026;-62
2022/10/19 07:56:26;;;;;;;3.67;2.35;;;;;;;;;;1691674;83;21048;-62
2022/10/19 07:58:53;;;;;;;4.75;2.87;;;;;;;;;;1689868;83;21061;-62
2022/10/19 08:01:22;;;;;;;4.03;2.87;;;;;;;;;;1698526;83;21025;-64
2022/10/19 08:03:48;;;;;;;4.67;2.95;;;;;;;;;;1700462;83;21053;-63
2022/10/19 08:06:15;;;;;;;5.60;2.50;;;;;;;;;;1695998;83;21509;-62
2022/10/19 08:08:42;;;;;;;3.70;2.40;;;;;;;;;;1653426;86;21030;-63
2022/10/19 08:11:09;;;;;;;3.12;2.17;;;;;;;;;;1697274;83;22197;-61
2022/10/19 08:13:35;;;;;;;3.40;2.10;;;;;;;;;;1694081;83;21072;-63
2022/10/19 08:16:02;;;;;;;5.45;3.22;;;;;;;;;;1693502;83;21092;-63
2022/10/19 08:18:29;;;;;;;2.83;2.30;;;;;;;;;;1684978;83;21020;-62
2022/10/19 08:20:56;;;;;;;2.60;2.05;;;;;;;;;;1706857;83;21041;-62
2022/10/19 08:23:22;;;;;;;3.52;2.25;;;;;;;;;;1683566;83;21044;-60
2022/10/19 08:25:49;;;;;;;5.08;2.10;;;;;;;;;;1629096;86;21448;-61
2022/10/19 08:28:15;;;;;;;2.62;1.90;;;;;;;;;;1650292;86;21069;-62
2022/10/19 08:30:43;;;;;;;4.60;2.10;;;;;;;;;;1688868;83;21108;-62
2022/10/19 08:33:11;;;;;;;2.20;1.75;;;;;;;;;;1665858;84;21100;-62
2022/10/19 08:35:37;;;;;;;2.25;1.77;;;;;;;;;;1683196;84;21033;-63
2022/10/19 08:38:03;;;;;;;3.00;1.82;;;;;;;;;;1684171;84;21069;-64
2022/10/19 08:40:31;;;;;;;1.87;1.70;;;;;;;;;;1676770;85;21076;-63
2022/10/19 08:43:04;;;;;;;2.85;1.90;;;;;;;;;;1653670;86;21581;-63
2022/10/19 08:45:34;;;;;;;4.03;1.65;;;;;;;;;;1689242;83;21049;-62
2022/10/19 08:48:11;;;;;;;3.55;1.87;;;;;;;;;;1671638;84;21506;-64
2022/10/19 08:50:38;;;;;;;2.47;1.90;;;;;;;;;;1699082;83;21064;-63
2022/10/19 08:53:12;;;;;;;2.27;1.85;;;;;;;;;;1691219;83;21026;-62
2022/10/19 08:55:44;;;;;;;2.40;1.60;;;;;;;;;;1681296;83;21092;-63
2022/10/19 08:58:15;;;;;;;2.33;1.80;;;;;;;;;;1674491;83;21716;-62
2022/10/19 09:00:47;;;;;;;5.08;1.77;;;;;;;;;;1690187;84;21057;-63
2022/10/19 09:03:15;;;;;;;3.02;1.57;;;;;;;;;;1686810;85;21147;-63
2022/10/19 09:05:58;;;;;;;3.30;1.80;;;;;;;;;;1689354;83;21060;-63
2022/10/19 09:08:24;;;;;;;4.22;2.10;;;;;;;;;;1681609;83;21592;-63
2022/10/19 09:10:51;;;;;;;27.13;11.45;;;;;;;;;;1654735;86;21105;-64
2022/10/19 09:13:23;;;;;;;11.15;5.58;;;;;;;;;;1684142;85;21056;-62
2022/10/19 09:15:50;;;;;;;3.80;2.20;;;;;;;;;;1693219;84;21116;-62
2022/10/19 09:18:23;;;;;;;17.37;9.78;;;;;;;;;;1635317;87;22150;-64
2022/10/19 09:20:51;;;;;;;6.90;4.45;;;;;;;;;;1697230;84;21077;-63
2022/10/19 09:23:35;;;;;;;4.08;2.37;;;;;;;;;;1665864;84;21478;-63
2022/10/19 09:26:01;;;;;;;2.70;2.05;;;;;;;;;;1677351;85;21588;-64
2022/10/19 09:28:38;;;;;;;3.92;2.12;;;;;;;;;;1643208;86;21541;-64
2022/10/19 09:31:04;;;;;;;4.10;2.00;;;;;;;;;;1674437;84;21056;-64
2022/10/19 09:33:32;;;;;;;2.25;1.70;;;;;;;;;;1694695;84;21041;-63
2022/10/19 09:35:58;;;;;;;3.35;2.10;;;;;;;;;;1683899;84;21077;-64
2022/10/19 09:38:26;;;;;;;4.80;2.10;;;;;;;;;;1652047;86;22141;-64
2022/10/19 09:40:52;;;;;;;2.40;1.80;;;;;;;;;;1677458;84;21068;-62
2022/10/19 09:43:20;;;;;;;3.12;2.02;;;;;;;;;;1692323;84;21108;-62
2022/10/19 09:46:03;;;;;;;3.55;1.90;;;;;;;;;;1657333;86;21089;-62
2022/10/19 09:48:40;;;;;;;4.22;2.00;;;;;;;;;;1650101;86;21197;-61
2022/10/19 09:51:11;;;;;;;3.80;2.20;;;;;;;;;;1620325;87;21077;-61
2022/10/19 09:53:37;;;;;;;3.17;2.05;;;;;;;;;;1646305;85;21092;-60
2022/10/19 09:56:05;;;;;;;3.40;2.10;;;;;;;;;;1656977;85;21065;-70
2022/10/19 09:58:33;;;;;;;6.85;2.72;;;;;;;;;;1646927;85;21823;-65
2022/10/19 10:01:00;;;;;;;3.45;2.22;;;;;;;;;;1620334;87;21109;-65
2022/10/19 10:03:38;;;;;;;4.33;2.30;;;;;;;;;;1641962;85;21148;-64
2022/10/19 10:06:05;;;;;;;9.00;6.37;;;;;;;;;;1645334;86;21101;-65
2022/10/19 10:08:35;;;;;;;5.50;3.60;;;;;;;;;;1647630;86;21061;-66
2022/10/19 10:11:07;;;;;;;4.72;2.67;;;;;;;;;;1641430;86;21039;-65
2022/10/19 10:13:37;;;;;;;3.65;2.10;;;;;;;;;;1657689;85;21080;-64
2022/10/19 10:16:06;;;;;;;4.55;2.37;;;;;;;;;;1660942;85;21977;-65
2022/10/19 10:18:34;;;;;;;4.30;2.50;;;;;;;;;;1662848;85;21552;-65
2022/10/19 10:21:02;;;;;;;4.25;2.50;;;;;;;;;;1659141;85;21138;-65
2022/10/19 10:23:31;;;;;;;2.65;2.00;;;;;;;;;;1656070;85;21080;-65
2022/10/19 10:25:57;;;;;;;4.60;2.42;;;;;;;;;;1644347;86;21093;-65
2022/10/19 10:28:25;;;;;;;4.17;2.22;;;;;;;;;;1632708;86;21448;-64
2022/10/19 10:30:55;;;;;;;3.20;2.17;;;;;;;;;;1658893;85;21072;-64
2022/10/19 10:33:25;;;;;;;3.40;2.17;;;;;;;;;;1655694;85;21096;-65
2022/10/19 10:35:54;;;;;;;3.92;2.10;;;;;;;;;;1657654;85;21592;-65
2022/10/19 10:38:28;;;;;;;2.62;1.62;;;;;;;;;;1642914;86;21130;-64
2022/10/19 10:40:56;;;;;;;3.30;2.02;;;;;;;;;;1619886;87;21125;-64
2022/10/19 10:43:24;;;;;;;4.10;1.90;;;;;;;;;;1618557;87;21146;-65
2022/10/19 10:45:51;;;;;;;3.98;2.10;;;;;;;;;;1676034;84;21029;-64
2022/10/19 10:48:26;;;;;;;2.45;1.82;;;;;;;;;;1642900;86;21036;-65
2022/10/19 10:50:52;;;;;;;2.08;1.70;;;;;;;;;;1655859;86;21101;-65
2022/10/19 10:53:32;;;;;;;1.50;1.37;;;;;;;;;;1646394;87;21095;-65
2022/10/19 10:55:59;;;;;;;3.02;2.00;;;;;;;;;;1619639;87;22248;-65
2022/10/19 10:58:30;;;;;;;2.00;1.57;;;;;;;;;;1619188;89;21617;-66
2022/10/19 11:00:58;;;;;;;2.67;1.80;;;;;;;;;;1618341;89;21101;-65
2022/10/19 11:03:25;;;;;;;1.60;1.50;;;;;;;;;;1630983;87;21061;-65
2022/10/19 11:05:54;;;;;;;2.05;1.50;;;;;;;;;;1690368;84;21642;-66
2022/10/19 11:08:23;;;;;;;2.35;1.62;;;;;;;;;;1685421;84;21137;-64
2022/10/19 11:10:51;;;;;;;2.90;1.75;;;;;;;;;;1680644;84;21165;-64
2022/10/19 11:13:23;;;;;;;2.65;1.87;;;;;;;;;;1652103;86;21804;-64
2022/10/19 11:15:53;;;;;;;4.08;1.98;;;;;;;;;;1676692;84;21060;-66
2022/10/19 11:18:30;;;;;;;3.08;1.98;;;;;;;;;;1654626;86;21105;-65
2022/10/19 11:21:02;;;;;;;2.60;2.20;;;;;;;;;;1653010;86;21116;-66
2022/10/19 11:23:33;;;;;;;3.33;2.10;;;;;;;;;;1676798;84;21074;-66
2022/10/19 11:26:04;;;;;;;3.55;1.90;;;;;;;;;;1675552;84;21072;-66
2022/10/19 11:28:43;;;;;;;3.25;2.40;;;;;;;;;;1675877;84;21091;-66
2022/10/19 11:31:13;;;;;;;4.37;2.25;;;;;;;;;;1676751;84;21092;-66
2022/10/19 11:33:42;;;;;;;3.95;2.12;;;;;;;;;;1680788;84;21096;-66
2022/10/19 11:36:13;;;;;;;2.47;1.62;;;;;;;;;;1680464;84;21065;-66
2022/10/19 11:38:40;;;;;;;2.98;1.90;;;;;;;;;;1654431;86;22350;-64
2022/10/19 11:41:25;;;;;;;2.52;1.80;;;;;;;;;;1653079;86;21448;-65
2022/10/19 11:43:53;;;;;;;3.33;1.67;;;;;;;;;;1650984;86;21363;-65
2022/10/19 11:46:21;;;;;;;3.62;2.00;;;;;;;;;;1612745;87;21727;-64
2022/10/19 11:48:50;;;;;;;6.00;2.20;;;;;;;;;;1612305;87;21074;-65
2022/10/19 11:51:19;;;;;;;3.70;1.98;;;;;;;;;;1642844;86;21114;-66
2022/10/19 11:53:53;;;;;;;4.03;2.00;;;;;;;;;;1602508;88;21062;-65
2022/10/19 11:56:30;;;;;;;2.98;2.20;;;;;;;;;;1631950;88;21124;-65
2022/10/19 11:58:58;;;;;;;4.20;1.98;;;;;;;;;;1604229;87;21625;-66
2022/10/19 12:01:27;;;;;;;3.40;2.02;;;;;;;;;;1604460;89;21124;-66
2022/10/19 12:03:55;;;;;;;3.58;2.10;;;;;;;;;;1604275;89;21092;-65
2022/10/19 12:06:23;;;;;;;3.77;2.30;;;;;;;;;;1609719;86;21054;-77
2022/10/19 12:08:52;;;;;;;4.10;2.30;;;;;;;;;;1608426;87;21042;-59
2022/10/19 12:11:22;;;;;;;3.47;2.47;;;;;;;;;;1641185;85;21061;-59
2022/10/19 12:13:50;;;;;;;3.95;2.08;;;;;;;;;;1616612;87;21490;-60
2022/10/19 12:16:17;;;;;;;4.17;2.20;;;;;;;;;;1619345;87;21438;-60
2022/10/19 12:18:54;;;;;;;2.42;1.82;;;;;;;;;;1619424;86;21092;-60
2022/10/19 12:21:23;;;;;;;2.50;1.92;;;;;;;;;;1690976;83;21349;-60
2022/10/19 12:23:50;;;;;;;4.55;2.10;;;;;;;;;;1687520;83;21052;-60
2022/10/19 12:26:17;;;;;;;2.67;2.00;;;;;;;;;;1677067;85;21025;-58
2022/10/19 12:28:55;;;;;;;5.10;2.50;;;;;;;;;;1680485;84;21073;-59
2022/10/19 12:31:24;;;;;;;3.02;2.20;;;;;;;;;;1670149;85;21056;-59
2022/10/19 12:34:08;;;;;;;4.05;2.75;;;;;;;;;;1677017;84;21100;-59
2022/10/19 12:36:36;;;;;;;3.75;2.47;;;;;;;;;;1683519;85;21049;-59
2022/10/19 12:39:10;;;;;;;4.30;3.08;;;;;;;;;;1683871;83;21076;-59
2022/10/19 12:41:39;;;;;;;4.95;2.50;;;;;;;;;;1699223;83;21576;-64
2022/10/19 12:44:14;;;;;;;3.30;2.22;;;;;;;;;;1689985;84;21160;-60
2022/10/19 12:46:41;;;;;;;5.53;2.90;;;;;;;;;;1634251;86;21045;-59
2022/10/19 12:49:27;;;;;;;5.45;2.55;;;;;;;;;;1654298;86;21033;-59
2022/10/19 12:51:54;;;;;;;7.30;2.37;;;;;;;;;;1655855;86;21053;-60
2022/10/19 12:54:24;;;;;;;5.97;2.92;;;;;;;;;;1650989;86;21096;-59
2022/10/19 12:56:52;;;;;;;4.40;2.92;;;;;;;;;;1628606;86;21049;-60
2022/10/19 12:59:31;;;;;;;5.35;2.70;;;;;;;;;;1615217;88;21066;-60
2022/10/19 13:01:58;;;;;;;7.62;3.22;;;;;;;;;;1638159;87;21133;-61
2022/10/19 13:07:07;;;;;;;5.92;3.83;;;;;;;;;;1811649;79;22858;-59
2022/10/19 13:09:37;;;;;;;5.97;3.52;;;;;;;;;;1758744;81;21547;-60
2022/10/19 13:12:17;;;;;;;6.33;3.67;;;;;;;;;;1757781;81;21055;-59
2022/10/19 13:14:56;;;;;;;5.15;3.40;;;;;;;;;;1758971;81;21550;-59
2022/10/19 13:17:36;;;;;;;7.65;3.55;;;;;;;;;;1748514;80;21036;-59
2022/10/19 13:20:15;;;;;;;4.62;2.92;;;;;;;;;;1763448;80;21004;-59
2022/10/19 13:22:47;;;;;;;6.00;3.10;;;;;;;;;;1760902;80;21044;-59
2022/10/19 13:25:20;;;;;;;4.10;2.92;;;;;;;;;;1754926;81;21044;-58
2022/10/19 13:27:47;;;;;;;5.65;3.27;;;;;;;;;;1755546;82;21539;-58
2022/10/19 13:30:32;;;;;;;5.58;3.08;;;;;;;;;;1755349;82;21052;-58
2022/10/19 13:33:02;;;;;;;5.90;3.52;;;;;;;;;;1756876;80;21120;-59
2022/10/19 13:35:34;;;;;;;5.78;3.87;;;;;;;;;;1742265;80;21020;-59
2022/10/19 13:38:11;;;;;;;6.25;3.90;;;;;;;;;;1766926;80;20989;-59
2022/10/19 13:40:39;;;;;;;6.28;4.22;;;;;;;;;;1755068;80;21072;-60
2022/10/19 13:43:09;;;;;;;8.65;4.03;;;;;;;;;;1761889;80;21566;-59
2022/10/19 13:45:35;;;;;;;5.45;3.77;;;;;;;;;;1752374;80;21586;-59
2022/10/19 13:48:03;;;;;;;6.33;3.92;;;;;;;;;;1756175;80;21059;-60
2022/10/19 13:50:43;;;;;;;6.33;3.60;;;;;;;;;;1754703;80;22122;-58
2022/10/19 13:53:14;;;;;;;8.05;4.28;;;;;;;;;;1752052;80;21103;-60
2022/10/19 13:55:59;;;;;;;9.60;5.22;;;;;;;;;;1756163;80;21050;-60
2022/10/19 13:58:36;;;;;;;8.08;4.25;;;;;;;;;;1752505;80;21682;-59
2022/10/19 14:01:13;;;;;;;6.08;3.72;;;;;;;;;;1767812;80;21088;-59
2022/10/19 14:03:45;;;;;;;6.97;3.92;;;;;;;;;;1768714;80;21515;-59
2022/10/19 14:06:27;;;;;;;5.95;3.55;;;;;;;;;;1753435;80;21200;-59
2022/10/19 14:09:03;;;;;;;6.90;4.40;;;;;;;;;;1748780;81;21013;-59
2022/10/19 14:11:30;;;;;;;5.20;3.72;;;;;;;;;;1746496;80;21037;-58
2022/10/19 14:14:08;;;;;;;8.00;4.28;;;;;;;;;;1755791;81;21556;-58
2022/10/19 14:16:46;;;;;;;11.75;7.53;;;;;;;;;;1758989;81;21092;-59
2022/10/19 14:19:12;;;;;;;9.88;5.25;;;;;;;;;;1728178;80;21018;-59
2022/10/19 14:21:40;;;;;;;8.43;3.92;;;;;;;;;;1746892;81;21041;-60
2022/10/19 14:24:20;;;;;;;6.97;4.10;;;;;;;;;;1755466;80;21009;-59
2022/10/19 14:26:46;;;;;;;10.95;5.15;;;;;;;;;;1748635;81;21044;-58
2022/10/19 14:29:12;;;;;;;12.37;5.42;;;;;;;;;;1754208;81;20997;-59
2022/10/19 14:31:39;;;;;;;10.28;5.70;;;;;;;;;;1706224;84;21057;-58
2022/10/19 14:34:06;;;;;;;9.95;5.80;;;;;;;;;;1755753;80;21056;-59
2022/10/19 14:36:35;;;;;;;7.50;4.83;;;;;;;;;;1753376;80;21029;-57
2022/10/19 14:39:01;;;;;;;9.13;4.65;;;;;;;;;;1736171;80;21031;-60
2022/10/19 14:41:31;;;;;;;9.53;4.90;;;;;;;;;;1744275;80;21088;-60
2022/10/19 14:43:59;;;;;;;7.00;4.70;;;;;;;;;;1749386;80;21407;-60
2022/10/19 14:46:26;;;;;;;9.50;5.37;;;;;;;;;;1770008;80;21063;-60
2022/10/19 14:48:52;;;;;;;8.78;5.05;;;;;;;;;;1742078;80;21056;-59
2022/10/19 14:51:30;;;;;;;8.25;4.65;;;;;;;;;;1738495;80;21032;-61
2022/10/19 14:54:00;;;;;;;10.82;5.40;;;;;;;;;;1753163;80;20962;-59
2022/10/19 14:56:28;;;;;;;9.85;5.17;;;;;;;;;;1756929;80;21072;-59
2022/10/19 14:58:55;;;;;;;9.38;5.15;;;;;;;;;;1740160;80;21104;-59
2022/10/19 15:01:21;;;;;;;9.98;5.65;;;;;;;;;;1743566;80;21610;-59
2022/10/19 15:03:48;;;;;;;10.53;5.50;;;;;;;;;;1740375;80;21080;-59
2022/10/19 15:06:19;;;;;;;17.20;6.12;;;;;;;;;;1748879;80;21085;-59
2022/10/19 15:08:47;;;;;;;11.97;6.70;;;;;;;;;;1744467;80;21616;-59
2022/10/19 15:11:32;;;;;;;10.32;5.67;;;;;;;;;;1747825;82;21049;-59
2022/10/19 15:13:59;;;;;;;9.70;4.53;;;;;;;;;;1751372;81;21544;-59
2022/10/19 15:16:28;;;;;;;9.38;4.30;;;;;;;;;;1750431;81;21635;-60
2022/10/19 15:18:54;;;;;;;16.52;9.08;;;;;;;;;;1754107;81;21021;-61
2022/10/19 15:21:21;;;;;;;14.00;4.72;;;;;;;;;;1748462;80;21014;-60
2022/10/19 15:23:48;;;;;;;11.95;4.80;;;;;;;;;;1746294;80;21083;-61
2022/10/19 15:26:15;;;;;;;10.03;3.95;;;;;;;;;;1745097;80;22494;-60